createdAt,value
2019-03-19T09:19:35.629Z,8.45
2019-03-19T09:20:37.336Z,8.38
2019-03-19T09:21:37.329Z,8.31
2019-03-19T09:22:37.366Z,8.26
2019-03-19T09:23:37.337Z,8.06
2019-03-19T09:24:37.338Z,8.01
2019-03-19T09:25:37.338Z,7.93
2019-03-19T09:26:37.339Z,7.76
2019-03-19T09:27:37.345Z,7.60
2019-03-19T09:28:37.336Z,7.54
2019-03-19T09:29:37.335Z,7.70
2019-03-19T09:30:37.327Z,7.82
2019-03-19T09:31:37.339Z,7.90
2019-03-19T09:32:37.346Z,8.10
2019-03-19T09:33:37.348Z,8.27
2019-03-19T09:34:37.334Z,8.33
2019-03-19T09:35:37.339Z,8.36
2019-03-19T09:36:37.337Z,8.38
2019-03-19T09:37:35.424Z,8.30
2019-03-19T09:39:06.783Z,8.10
2019-03-19T09:40:08.543Z,8.36
2019-03-19T09:41:08.534Z,8.48
2019-03-19T09:42:08.546Z,8.64
2019-03-19T09:43:08.561Z,8.70
2019-03-19T09:44:08.547Z,8.70
2019-03-19T09:45:08.556Z,8.73
2019-03-19T09:46:08.552Z,8.89
2019-03-19T09:47:08.551Z,8.84
2019-03-19T09:48:08.581Z,9.00
2019-03-19T09:49:08.545Z,9.02
2019-03-19T09:50:08.531Z,9.03
2019-03-19T09:51:08.554Z,8.82
2019-03-19T09:52:08.544Z,8.82
2019-03-19T09:53:08.545Z,9.06
2019-03-19T09:54:08.543Z,9.13
2019-03-19T09:55:08.555Z,9.04
2019-03-19T09:56:08.553Z,8.97
2019-03-19T09:57:08.543Z,9.04
2019-03-19T09:58:08.543Z,9.18
2019-03-19T09:59:07.545Z,9.31
2019-03-19T10:00:08.056Z,9.51
2019-03-19T10:01:08.097Z,9.66
2019-03-19T10:02:08.044Z,9.84
2019-03-19T10:03:08.045Z,9.94
2019-03-19T10:04:08.041Z,10.07
2019-03-19T10:05:07.043Z,9.99
2019-03-19T10:06:13.835Z,9.98
2019-03-19T10:07:09.044Z,9.99
2019-03-19T10:08:08.043Z,10.04
2019-03-19T10:09:08.043Z,9.97
2019-03-19T10:10:08.053Z,10.02
2019-03-19T10:11:08.102Z,9.92
2019-03-19T10:12:08.041Z,9.80
2019-03-19T10:13:08.032Z,9.68
2019-03-19T10:14:08.043Z,9.34
2019-03-19T10:15:08.045Z,9.40
2019-03-19T10:16:07.681Z,9.28
2019-03-19T10:17:08.053Z,9.46
2019-03-19T10:18:08.043Z,9.48
2019-03-19T10:19:08.043Z,9.55
2019-03-19T10:20:08.044Z,9.36
2019-03-19T10:21:08.042Z,9.06
2019-03-19T10:22:08.048Z,8.84
2019-03-19T10:23:08.041Z,8.73
2019-03-19T10:24:08.041Z,8.60
2019-03-19T10:25:08.031Z,8.45
2019-03-19T10:26:08.054Z,8.41
2019-03-19T10:27:08.066Z,8.16
2019-03-19T10:28:09.071Z,8.16
2019-03-19T10:29:08.043Z,7.98
2019-03-19T10:30:08.041Z,7.93
2019-03-19T10:31:08.033Z,7.83
2019-03-19T10:32:08.048Z,7.69
2019-03-19T10:33:08.040Z,7.79
2019-03-19T10:34:08.042Z,7.93
2019-03-19T10:35:08.042Z,8.20
2019-03-19T10:36:08.035Z,8.33
2019-03-19T10:37:08.040Z,8.45
2019-03-19T10:38:08.050Z,8.66
2019-03-19T10:39:09.184Z,8.89
2019-03-19T10:40:08.053Z,9.11
2019-03-19T10:41:08.045Z,9.02
2019-03-19T10:42:08.039Z,9.16
2019-03-19T10:43:07.040Z,9.34
2019-03-19T10:44:08.047Z,9.55
2019-03-19T10:45:07.549Z,9.66
2019-03-19T10:46:07.541Z,9.51
2019-03-19T10:47:07.541Z,9.40
2019-03-19T10:48:07.552Z,9.21
2019-03-19T10:49:07.541Z,9.16
2019-03-19T10:50:07.539Z,8.87
2019-03-19T10:51:07.545Z,8.76
2019-03-19T10:52:07.541Z,8.66
2019-03-19T10:53:07.541Z,8.66
2019-03-19T10:54:05.950Z,8.67
2019-03-19T10:55:07.528Z,8.87
2019-03-19T10:56:07.555Z,8.92
2019-03-19T10:57:07.538Z,8.99
2019-03-19T10:58:11.278Z,9.10
2019-03-19T10:59:07.543Z,9.19
2019-03-19T11:00:07.540Z,9.19
2019-03-19T11:01:07.545Z,9.22
2019-03-19T11:02:07.547Z,9.47
2019-03-19T11:03:07.545Z,9.55
2019-03-19T11:04:07.528Z,9.56
2019-03-19T11:05:05.830Z,9.82
2019-03-19T11:06:07.543Z,9.86
2019-03-19T11:07:07.540Z,10.02
2019-03-19T11:08:07.572Z,10.12
2019-03-19T11:09:07.580Z,10.20
2019-03-19T11:10:07.540Z,10.37
2019-03-19T11:11:07.540Z,10.59
2019-03-19T11:12:07.540Z,10.72
2019-03-19T11:13:07.540Z,10.81
2019-03-19T11:14:07.546Z,11.08
2019-03-19T11:15:07.552Z,11.18
2019-03-19T11:16:05.712Z,11.36
2019-03-19T11:17:07.538Z,11.35
2019-03-19T11:18:07.540Z,11.50
2019-03-19T11:19:07.540Z,11.72
2019-03-19T11:20:07.552Z,11.72
2019-03-19T11:21:07.542Z,11.50
2019-03-19T11:22:07.538Z,11.37
2019-03-19T11:23:07.542Z,11.18
2019-03-19T11:24:07.542Z,11.10
2019-03-19T11:25:07.540Z,10.75
2019-03-19T11:26:07.547Z,10.72
2019-03-19T11:27:07.538Z,10.75
2019-03-19T11:28:07.528Z,10.72
2019-03-19T11:29:07.537Z,10.37
2019-03-19T11:30:07.567Z,10.30
2019-03-19T11:31:07.541Z,10.01
2019-03-19T11:32:06.541Z,10.22
2019-03-19T11:33:07.040Z,10.04
2019-03-19T11:34:07.039Z,9.92
2019-03-19T11:35:07.049Z,9.69
2019-03-19T11:36:07.028Z,9.56
2019-03-19T11:37:07.048Z,9.34
2019-03-19T11:38:07.051Z,9.29
2019-03-19T11:39:07.040Z,9.11
2019-03-19T11:40:07.038Z,8.97
2019-03-19T11:41:07.445Z,9.06
2019-03-19T11:42:07.041Z,9.19
2019-03-19T11:43:05.443Z,9.32
2019-03-19T11:44:07.040Z,9.21
2019-03-19T11:45:07.042Z,9.28
2019-03-19T11:46:07.038Z,9.47
2019-03-19T11:47:07.027Z,9.97
2019-03-19T11:48:07.057Z,10.02
2019-03-19T11:49:07.095Z,10.17
2019-03-19T11:50:07.105Z,9.99
2019-03-19T11:51:07.041Z,10.01
2019-03-19T11:52:07.039Z,9.84
2019-03-19T11:53:07.041Z,10.04
2019-03-19T11:54:05.326Z,9.99
2019-03-19T11:55:07.027Z,10.10
2019-03-19T11:56:07.040Z,10.13
2019-03-19T11:57:07.042Z,9.94
2019-03-19T11:58:07.043Z,9.99
2019-03-19T11:59:07.027Z,9.89
2019-03-19T12:00:11.524Z,10.15
2019-03-19T12:01:07.038Z,10.69
2019-03-19T12:02:07.042Z,10.97
2019-03-19T12:03:15.525Z,11.44
2019-03-19T12:04:08.040Z,11.87
2019-03-19T12:05:07.043Z,12.04
2019-03-19T12:06:07.046Z,12.37
2019-03-19T12:07:07.037Z,12.61
2019-03-19T12:08:07.027Z,12.64
2019-03-19T12:09:07.037Z,12.37
2019-03-19T12:10:05.133Z,12.47
2019-03-19T12:11:07.049Z,12.61
2019-03-19T12:12:07.058Z,12.76
2019-03-19T12:13:07.039Z,12.78
2019-03-19T12:14:07.044Z,13.05
2019-03-19T12:15:07.049Z,13.23
2019-03-19T12:16:07.068Z,13.27
2019-03-19T12:17:07.039Z,13.25
2019-03-19T12:18:06.549Z,12.94
2019-03-19T12:19:06.536Z,12.67
2019-03-19T12:20:06.528Z,12.39
2019-03-19T12:21:05.012Z,12.06
2019-03-19T12:22:06.540Z,12.06
2019-03-19T12:23:06.550Z,12.17
2019-03-19T12:24:06.538Z,12.32
2019-03-19T12:25:06.550Z,12.43
2019-03-19T12:26:06.538Z,12.49
2019-03-19T12:27:06.536Z,12.35
2019-03-19T12:28:06.541Z,12.36
2019-03-19T12:29:06.570Z,12.18
2019-03-19T12:30:06.571Z,12.13
2019-03-19T12:31:06.544Z,12.06
2019-03-19T12:32:06.526Z,12.07
2019-03-19T12:33:06.537Z,12.22
2019-03-19T12:34:06.538Z,12.04
2019-03-19T12:35:06.547Z,12.31
2019-03-19T12:36:06.539Z,12.09
2019-03-19T12:37:06.547Z,11.95
2019-03-19T12:38:06.547Z,11.94
2019-03-19T12:39:06.527Z,12.06
2019-03-19T12:40:06.536Z,12.24
2019-03-19T12:41:06.540Z,12.46
2019-03-19T12:42:06.539Z,12.62
2019-03-19T12:43:06.543Z,12.75
2019-03-19T12:44:06.551Z,12.43
2019-03-19T12:45:06.539Z,12.15
2019-03-19T12:46:06.548Z,12.40
2019-03-19T12:47:06.543Z,12.72
2019-03-19T12:48:04.740Z,12.80
2019-03-19T12:49:06.548Z,12.95
2019-03-19T12:50:06.541Z,13.04
2019-03-19T12:51:06.540Z,12.98
2019-03-19T12:52:06.542Z,13.12
2019-03-19T12:53:06.537Z,13.18
2019-03-19T12:54:06.544Z,13.41
2019-03-19T12:55:06.545Z,13.04
2019-03-19T12:56:06.570Z,13.03
2019-03-19T12:57:06.560Z,13.20
2019-03-19T12:58:06.565Z,12.67
2019-03-19T12:59:06.527Z,12.32
2019-03-19T13:00:06.540Z,12.07
2019-03-19T13:01:06.607Z,11.91
2019-03-19T13:02:06.536Z,11.69
2019-03-19T13:03:06.527Z,11.97
2019-03-19T13:04:06.044Z,12.22
2019-03-19T13:05:06.036Z,12.10
2019-03-19T13:06:06.040Z,12.18
2019-03-19T13:07:06.047Z,12.36
2019-03-19T13:08:06.038Z,12.60
2019-03-19T13:09:06.059Z,12.78
2019-03-19T13:10:06.068Z,12.98
2019-03-19T13:11:06.076Z,12.76
2019-03-19T13:12:06.037Z,12.60
2019-03-19T13:13:06.041Z,12.39
2019-03-19T13:14:06.056Z,12.12
2019-03-19T13:15:04.447Z,11.88
2019-03-19T13:16:06.035Z,11.91
2019-03-19T13:17:06.041Z,11.84
2019-03-19T13:18:06.039Z,11.72
2019-03-19T13:19:06.202Z,11.75
2019-03-19T13:20:06.051Z,11.75
2019-03-19T13:21:06.051Z,11.69
2019-03-19T13:22:06.037Z,11.91
2019-03-19T13:23:06.036Z,11.95
2019-03-19T13:24:06.039Z,12.29
2019-03-19T13:25:06.035Z,12.46
2019-03-19T13:26:04.327Z,12.72
2019-03-19T13:27:06.051Z,12.97
2019-03-19T13:28:06.042Z,13.33
2019-03-19T13:29:06.049Z,13.50
2019-03-19T13:30:06.037Z,13.37
2019-03-19T13:31:06.031Z,13.20
2019-03-19T13:32:06.058Z,13.25
2019-03-19T13:33:06.041Z,13.03
2019-03-19T13:34:06.045Z,12.73
2019-03-19T13:35:06.026Z,12.70
2019-03-19T13:36:06.055Z,12.37
2019-03-19T13:37:06.052Z,12.17
2019-03-19T13:38:06.063Z,11.99
2019-03-19T13:39:06.057Z,11.83
2019-03-19T13:40:06.047Z,11.66
2019-03-19T13:41:06.038Z,11.52
2019-03-19T13:42:06.036Z,11.55
2019-03-19T13:43:06.030Z,11.57
2019-03-19T13:44:06.044Z,11.70
2019-03-19T13:45:06.036Z,11.72
2019-03-19T13:46:06.040Z,11.73
2019-03-19T13:47:06.040Z,11.84
2019-03-19T13:48:06.036Z,11.90
2019-03-19T13:49:06.051Z,12.03
2019-03-19T13:50:06.051Z,11.90
2019-03-19T13:51:05.603Z,12.03
2019-03-19T13:52:05.538Z,11.97
2019-03-19T13:53:04.542Z,11.72
2019-03-19T13:54:05.537Z,11.75
2019-03-19T13:55:05.528Z,11.81
2019-03-19T13:56:05.548Z,11.88
2019-03-19T13:57:05.537Z,11.90
2019-03-19T13:58:05.541Z,11.88
2019-03-19T13:59:05.545Z,11.94
2019-03-19T14:00:05.550Z,11.73
2019-03-19T14:01:05.539Z,11.68
2019-03-19T14:02:05.537Z,11.52
2019-03-19T14:03:05.526Z,11.52
2019-03-19T14:04:03.902Z,11.47
2019-03-19T14:05:05.539Z,11.40
2019-03-19T14:06:05.546Z,11.22
2019-03-19T14:07:05.537Z,11.17
2019-03-19T14:08:05.539Z,11.23
2019-03-19T14:09:05.539Z,11.35
2019-03-19T14:10:05.540Z,11.43
2019-03-19T14:11:05.553Z,11.45
2019-03-19T14:12:05.539Z,11.59
2019-03-19T14:13:05.548Z,11.66
2019-03-19T14:14:05.538Z,11.63
2019-03-19T14:15:05.528Z,11.70
2019-03-19T14:16:05.526Z,11.73
2019-03-19T14:17:06.658Z,11.72
2019-03-19T14:18:05.573Z,11.90
2019-03-19T14:19:05.541Z,11.86
2019-03-19T14:20:03.721Z,11.99
2019-03-19T14:21:05.545Z,11.95
2019-03-19T14:22:05.539Z,12.10
2019-03-19T14:23:05.541Z,12.12
2019-03-19T14:24:05.550Z,12.20
2019-03-19T14:25:05.539Z,12.25
2019-03-19T14:26:05.536Z,12.21
2019-03-19T14:27:05.539Z,12.04
2019-03-19T14:28:05.537Z,11.99
2019-03-19T14:29:05.547Z,12.03
2019-03-19T14:30:05.555Z,11.84
2019-03-19T14:31:08.882Z,11.87
2019-03-19T14:32:05.539Z,11.81
2019-03-19T14:33:05.539Z,11.70
2019-03-19T14:34:05.556Z,11.59
2019-03-19T14:35:05.539Z,11.50
2019-03-19T14:36:05.549Z,11.50
2019-03-19T14:37:04.540Z,11.52
2019-03-19T14:38:05.037Z,11.63
2019-03-19T14:39:05.037Z,11.72
2019-03-19T14:40:05.044Z,11.73
2019-03-19T14:41:05.036Z,11.77
2019-03-19T14:42:05.049Z,11.90
2019-03-19T14:43:05.049Z,11.99
2019-03-19T14:44:05.053Z,11.91
2019-03-19T14:45:05.041Z,12.00
2019-03-19T14:46:05.056Z,12.31
2019-03-19T14:47:04.043Z,13.12
2019-03-19T14:48:06.249Z,13.38
2019-03-19T14:49:05.039Z,14.35
2019-03-19T14:50:05.040Z,14.11
2019-03-19T14:51:05.041Z,14.85
2019-03-19T14:52:05.043Z,15.10
2019-03-19T14:53:05.036Z,15.14
2019-03-19T14:54:05.041Z,14.92
2019-03-19T14:55:05.042Z,14.51
2019-03-19T14:56:05.043Z,14.22
2019-03-19T14:57:05.058Z,13.89
2019-03-19T14:58:03.312Z,13.56
2019-03-19T14:59:05.064Z,13.33
2019-03-19T15:00:05.037Z,13.23
2019-03-19T15:01:05.039Z,13.05
2019-03-19T15:02:05.041Z,12.87
2019-03-19T15:03:05.057Z,12.82
2019-03-19T15:04:05.051Z,12.68
2019-03-19T15:05:05.042Z,12.61
2019-03-19T15:06:05.039Z,12.47
2019-03-19T15:07:05.029Z,12.35
2019-03-19T15:08:05.039Z,12.17
2019-03-19T15:09:05.039Z,12.06
2019-03-19T15:10:05.045Z,11.90
2019-03-19T15:11:06.029Z,11.78
2019-03-19T15:12:05.045Z,11.73
2019-03-19T15:13:05.038Z,11.51
2019-03-19T15:14:05.089Z,11.40
2019-03-19T15:15:05.048Z,11.35
2019-03-19T15:16:05.056Z,11.29
2019-03-19T15:17:05.434Z,11.43
2019-03-19T15:18:05.039Z,11.33
2019-03-19T15:19:05.027Z,11.15
2019-03-19T15:20:05.028Z,11.07
2019-03-19T15:21:05.038Z,11.12
2019-03-19T15:22:05.048Z,11.07
2019-03-19T15:23:05.040Z,11.07
2019-03-19T15:24:04.543Z,11.86
2019-03-19T15:25:03.042Z,12.36
2019-03-19T15:26:04.541Z,12.75
2019-03-19T15:27:04.538Z,13.31
2019-03-19T15:28:04.551Z,13.33
2019-03-19T15:29:04.539Z,12.94
2019-03-19T15:30:04.538Z,12.78
2019-03-19T15:31:04.526Z,12.62
2019-03-19T15:32:04.553Z,13.41
2019-03-19T15:33:04.538Z,14.23
2019-03-19T15:34:04.548Z,14.54
2019-03-19T15:35:04.541Z,14.82
2019-03-19T15:36:02.925Z,15.09
2019-03-19T15:37:04.539Z,15.61
2019-03-19T15:38:04.537Z,15.80
2019-03-19T15:39:04.555Z,16.10
2019-03-19T15:40:04.587Z,16.38
2019-03-19T15:41:04.549Z,16.29
2019-03-19T15:42:04.537Z,16.04
2019-03-19T15:43:04.529Z,15.80
2019-03-19T15:44:04.543Z,15.35
2019-03-19T15:45:04.537Z,14.45
2019-03-19T15:46:04.539Z,14.04
2019-03-19T15:47:04.539Z,13.49
2019-03-19T15:48:04.541Z,13.16
2019-03-19T15:49:04.540Z,12.90
2019-03-19T15:50:04.548Z,12.62
2019-03-19T15:51:04.552Z,12.43
2019-03-19T15:52:04.527Z,12.21
2019-03-19T15:53:04.542Z,11.94
2019-03-19T15:54:04.539Z,11.80
2019-03-19T15:55:04.540Z,11.57
2019-03-19T15:56:04.543Z,11.55
2019-03-19T15:57:04.537Z,11.41
2019-03-19T15:58:04.540Z,11.29
2019-03-19T15:59:04.539Z,11.25
2019-03-19T16:00:04.541Z,11.32
2019-03-19T16:01:04.539Z,11.18
2019-03-19T16:02:04.548Z,11.14
2019-03-19T16:03:02.610Z,11.12
2019-03-19T16:04:32.993Z,11.10
2019-03-19T16:05:34.712Z,11.14
2019-03-19T16:06:34.712Z,11.40
2019-03-19T16:07:34.717Z,11.70
2019-03-19T16:08:32.942Z,11.78
2019-03-19T16:09:34.714Z,11.68
2019-03-19T16:10:34.742Z,11.51
2019-03-19T16:11:34.756Z,11.91
2019-03-19T16:12:34.722Z,12.47
2019-03-19T16:13:34.710Z,12.72
2019-03-19T16:14:34.712Z,12.45
2019-03-19T16:15:34.716Z,12.31
2019-03-19T16:16:34.712Z,12.06
2019-03-19T16:17:34.711Z,11.95
2019-03-19T16:18:34.718Z,11.78
2019-03-19T16:19:34.721Z,11.69
2019-03-19T16:20:34.701Z,11.54
2019-03-19T16:21:34.711Z,11.35
2019-03-19T16:22:34.712Z,11.30
2019-03-19T16:23:34.723Z,11.22
2019-03-19T16:24:34.712Z,11.05
2019-03-19T16:25:34.711Z,10.87
2019-03-19T16:26:34.710Z,10.68
2019-03-19T16:27:34.711Z,10.68
2019-03-19T16:28:34.729Z,10.48
2019-03-19T16:29:33.715Z,10.48
2019-03-19T16:30:34.211Z,10.41
2019-03-19T16:31:34.217Z,10.23
2019-03-19T16:32:34.211Z,10.15
2019-03-19T16:33:34.210Z,10.17
2019-03-19T16:34:34.213Z,10.04
2019-03-19T16:35:34.214Z,10.05
2019-03-19T16:36:34.223Z,9.98
2019-03-19T16:37:34.216Z,9.94
2019-03-19T16:38:34.201Z,9.92
2019-03-19T16:39:35.298Z,9.80
2019-03-19T16:40:34.211Z,9.77
2019-03-19T16:41:34.211Z,9.74
2019-03-19T16:42:34.223Z,9.64
2019-03-19T16:43:34.212Z,9.56
2019-03-19T16:44:34.210Z,9.54
2019-03-19T16:45:34.212Z,9.43
2019-03-19T16:46:34.218Z,9.32
2019-03-19T16:47:34.230Z,9.37
2019-03-19T16:48:34.213Z,9.36
2019-03-19T16:49:34.212Z,9.34
2019-03-19T16:50:34.209Z,9.26
2019-03-19T16:51:34.236Z,9.29
2019-03-19T16:52:34.249Z,9.23
2019-03-19T16:53:32.475Z,9.32
2019-03-19T16:54:34.212Z,9.29
2019-03-19T16:55:34.213Z,9.29
2019-03-19T16:56:34.212Z,9.32
2019-03-19T16:57:34.212Z,9.34
2019-03-19T16:58:34.202Z,9.25
2019-03-19T16:59:34.218Z,9.22
2019-03-19T17:00:34.212Z,9.32
2019-03-19T17:01:34.213Z,9.28
2019-03-19T17:02:34.210Z,9.28
2019-03-19T17:03:34.210Z,9.25
2019-03-19T17:04:34.229Z,9.23
2019-03-19T17:05:34.216Z,9.18
2019-03-19T17:06:34.212Z,9.19
2019-03-19T17:07:34.211Z,9.11
2019-03-19T17:08:34.213Z,9.03
2019-03-19T17:09:34.212Z,9.03
2019-03-19T17:10:34.219Z,9.02
2019-03-19T17:11:34.233Z,8.85
2019-03-19T17:12:34.209Z,8.85
2019-03-19T17:13:34.215Z,8.71
2019-03-19T17:14:34.214Z,8.73
2019-03-19T17:15:34.222Z,8.56
2019-03-19T17:16:33.710Z,8.48
2019-03-19T17:17:33.699Z,8.38
2019-03-19T17:18:33.710Z,8.27
2019-03-19T17:19:33.719Z,8.19
2019-03-19T17:20:33.709Z,8.06
2019-03-19T17:21:32.162Z,7.93
2019-03-19T17:22:33.714Z,7.83
2019-03-19T17:23:33.708Z,7.61
2019-03-19T17:24:33.725Z,7.45
2019-03-19T17:25:33.709Z,7.39
2019-03-19T17:26:33.711Z,7.25
2019-03-19T17:27:33.728Z,7.25
2019-03-19T17:28:33.710Z,7.05
2019-03-19T17:29:33.720Z,6.96
2019-03-19T17:30:33.757Z,6.99
2019-03-19T17:31:33.722Z,6.85
2019-03-19T17:32:33.758Z,6.72
2019-03-19T17:33:33.708Z,6.70
2019-03-19T17:34:33.708Z,6.63
2019-03-19T17:35:33.717Z,6.45
2019-03-19T17:36:33.707Z,6.31
2019-03-19T17:37:33.697Z,6.31
2019-03-19T17:38:31.984Z,6.17
2019-03-19T17:39:33.719Z,6.05
2019-03-19T17:40:41.363Z,6.09
2019-03-19T17:41:34.709Z,6.11
2019-03-19T17:42:33.696Z,6.01
2019-03-19T17:43:33.705Z,6.02
2019-03-19T17:44:33.714Z,6.01
2019-03-19T17:45:33.717Z,5.91
2019-03-19T17:46:33.738Z,5.99
2019-03-19T17:47:33.718Z,5.90
2019-03-19T17:48:33.705Z,5.83
2019-03-19T17:49:33.696Z,5.82
2019-03-19T17:50:33.712Z,5.84
2019-03-19T17:51:33.716Z,5.76
2019-03-19T17:52:33.730Z,5.79
2019-03-19T17:53:33.711Z,5.73
2019-03-19T17:54:33.711Z,5.76
2019-03-19T17:55:31.816Z,5.75
2019-03-19T17:56:33.705Z,5.65
2019-03-19T17:57:33.696Z,5.68
2019-03-19T17:58:33.712Z,5.73
2019-03-19T17:59:34.733Z,5.71
2019-03-19T18:00:33.707Z,5.64
2019-03-19T18:01:35.847Z,5.66
2019-03-19T18:02:33.720Z,5.65
2019-03-19T18:03:33.205Z,5.72
2019-03-19T18:04:33.208Z,5.71
2019-03-19T18:05:33.230Z,5.68
2019-03-19T18:06:33.194Z,5.59
2019-03-19T18:07:33.212Z,5.64
2019-03-19T18:08:33.204Z,5.59
2019-03-19T18:09:33.197Z,5.62
2019-03-19T18:10:33.216Z,5.71
2019-03-19T18:11:33.226Z,5.65
2019-03-19T18:12:31.624Z,5.64
2019-03-19T18:13:33.205Z,5.71
2019-03-19T18:14:33.193Z,5.66
2019-03-19T18:15:33.203Z,5.62
2019-03-19T18:16:33.203Z,5.72
2019-03-19T18:17:33.208Z,5.65
2019-03-19T18:18:33.205Z,5.61
2019-03-19T18:19:33.205Z,5.62
2019-03-19T18:20:33.203Z,5.66
2019-03-19T18:21:33.214Z,5.62
2019-03-19T18:22:33.205Z,5.61
2019-03-19T18:23:33.220Z,5.64
2019-03-19T18:24:33.205Z,5.54
2019-03-19T18:25:33.204Z,5.66
2019-03-19T18:26:33.202Z,5.51
2019-03-19T18:27:33.203Z,5.64
2019-03-19T18:28:33.211Z,5.54
2019-03-19T18:29:33.204Z,5.57
2019-03-19T18:30:33.212Z,5.61
2019-03-19T18:31:33.218Z,5.59
2019-03-19T18:32:35.374Z,5.54
2019-03-19T18:33:33.205Z,5.64
2019-03-19T18:34:33.208Z,5.51
2019-03-19T18:35:33.204Z,5.51
2019-03-19T18:36:33.203Z,5.44
2019-03-19T18:37:33.205Z,5.35
2019-03-19T18:38:33.194Z,5.36
2019-03-19T18:39:35.491Z,5.32
2019-03-19T18:40:32.212Z,5.20
2019-03-19T18:41:33.207Z,5.15
2019-03-19T18:42:33.202Z,5.00
2019-03-19T18:43:33.204Z,4.90
2019-03-19T18:44:33.210Z,4.94
2019-03-19T18:45:33.217Z,4.80
2019-03-19T18:46:33.200Z,4.62
2019-03-19T18:47:33.199Z,4.56
2019-03-19T18:48:33.200Z,4.41
2019-03-19T18:49:33.190Z,4.34
2019-03-19T18:50:32.702Z,4.17
2019-03-19T18:51:32.719Z,4.12
2019-03-19T18:52:32.700Z,4.06
2019-03-19T18:53:32.700Z,3.99
2019-03-19T18:54:32.701Z,3.88
2019-03-19T18:55:32.703Z,3.84
2019-03-19T18:56:32.787Z,3.66
2019-03-19T18:57:31.139Z,3.73
2019-03-19T18:58:32.699Z,3.56
2019-03-19T18:59:32.699Z,3.44
2019-03-19T19:00:32.703Z,3.47
2019-03-19T19:01:32.707Z,3.42
2019-03-19T19:02:32.701Z,3.44
2019-03-19T19:03:32.701Z,3.22
2019-03-19T19:04:32.699Z,3.25
2019-03-19T19:05:32.700Z,3.10
2019-03-19T19:06:32.698Z,3.14
2019-03-19T19:07:32.706Z,3.10
2019-03-19T19:08:32.716Z,3.08
2019-03-19T19:09:32.704Z,2.98
2019-03-19T19:10:32.699Z,2.97
2019-03-19T19:11:32.697Z,2.86
2019-03-19T19:12:32.701Z,2.92
2019-03-19T19:13:32.704Z,2.80
2019-03-19T19:14:32.700Z,2.80
2019-03-19T19:15:32.699Z,2.80
2019-03-19T19:16:32.714Z,2.77
2019-03-19T19:17:32.704Z,2.85
2019-03-19T19:18:32.739Z,2.86
2019-03-19T19:19:33.699Z,2.79
2019-03-19T19:20:32.716Z,2.93
2019-03-19T19:21:32.686Z,2.92
2019-03-19T19:22:32.705Z,2.97
2019-03-19T19:23:32.707Z,2.98
2019-03-19T19:24:33.706Z,3.01
2019-03-19T19:25:33.696Z,3.13
2019-03-19T19:26:31.706Z,3.08
2019-03-19T19:27:32.707Z,3.19
2019-03-19T19:28:32.696Z,3.18
2019-03-19T19:29:32.711Z,3.22
2019-03-19T19:30:32.697Z,3.22
2019-03-19T19:31:32.733Z,3.23
2019-03-19T19:32:30.796Z,3.18
2019-03-19T19:33:32.724Z,3.21
2019-03-19T19:34:32.707Z,3.23
2019-03-19T19:35:32.699Z,3.28
2019-03-19T19:36:32.727Z,3.26
2019-03-19T19:37:32.696Z,3.36
2019-03-19T19:38:32.183Z,3.34
2019-03-19T19:39:32.202Z,3.37
2019-03-19T19:40:32.204Z,3.32
2019-03-19T19:41:32.255Z,3.41
2019-03-19T19:42:32.251Z,3.36
2019-03-19T19:43:32.224Z,3.32
2019-03-19T19:44:32.234Z,3.47
2019-03-19T19:45:33.225Z,3.45
2019-03-19T19:46:32.196Z,3.48
2019-03-19T19:47:32.203Z,3.48
2019-03-19T19:48:33.199Z,3.58
2019-03-19T19:49:31.202Z,3.47
2019-03-19T19:50:32.185Z,3.63
2019-03-19T19:51:32.192Z,3.42
2019-03-19T19:52:32.201Z,3.63
2019-03-19T19:53:32.194Z,3.50
2019-03-19T19:54:32.281Z,3.48
2019-03-19T19:55:30.566Z,3.32
2019-03-19T19:56:32.191Z,3.42
2019-03-19T19:57:33.193Z,3.37
2019-03-19T19:58:32.194Z,3.26
2019-03-19T19:59:32.202Z,3.23
2019-03-19T20:00:32.197Z,3.25
2019-03-19T20:01:30.451Z,3.16
2019-03-19T20:02:32.221Z,3.23
2019-03-19T20:03:32.191Z,3.10
2019-03-19T20:04:32.198Z,3.08
2019-03-19T20:05:34.012Z,3.04
2019-03-19T20:06:32.193Z,2.83
2019-03-19T20:07:32.193Z,2.79
2019-03-19T20:08:32.193Z,2.77
2019-03-19T20:09:32.259Z,2.65
2019-03-19T20:10:32.221Z,2.60
2019-03-19T20:11:32.191Z,2.49
2019-03-19T20:12:32.272Z,2.53
2019-03-19T20:13:32.196Z,2.47
2019-03-19T20:14:32.241Z,2.44
2019-03-19T20:15:32.199Z,2.29
2019-03-19T20:16:32.188Z,2.29
2019-03-19T20:17:33.202Z,2.15
2019-03-19T20:18:31.219Z,2.22
2019-03-19T20:19:32.192Z,2.20
2019-03-19T20:20:32.198Z,2.13
2019-03-19T20:21:32.257Z,2.10
2019-03-19T20:22:32.188Z,2.07
2019-03-19T20:23:32.312Z,2.11
2019-03-19T20:24:32.188Z,2.13
2019-03-19T20:25:32.239Z,2.11
2019-03-19T20:26:31.689Z,2.08
2019-03-19T20:27:32.698Z,1.97
2019-03-19T20:28:31.760Z,2.02
2019-03-19T20:29:31.687Z,1.95
2019-03-19T20:30:31.691Z,1.97
2019-03-19T20:31:31.689Z,1.89
2019-03-19T20:32:31.790Z,1.84
2019-03-19T20:33:31.701Z,1.92
2019-03-19T20:34:31.728Z,1.95
2019-03-19T20:35:30.690Z,1.95
2019-03-19T20:36:31.727Z,1.77
2019-03-19T20:37:32.716Z,1.81
2019-03-19T20:38:31.785Z,1.81
2019-03-19T20:39:31.759Z,1.78
2019-03-19T20:40:31.689Z,1.80
2019-03-19T20:41:31.689Z,1.81
2019-03-19T20:42:31.689Z,1.85
2019-03-19T20:43:31.686Z,1.81
2019-03-19T20:44:31.696Z,1.68
2019-03-19T20:45:31.688Z,1.67
2019-03-19T20:46:31.685Z,1.63
2019-03-19T20:47:31.685Z,1.62
2019-03-19T20:48:31.685Z,1.56
2019-03-19T20:49:31.691Z,1.62
2019-03-19T20:50:31.692Z,1.52
2019-03-19T20:51:31.688Z,1.53
2019-03-19T20:52:31.684Z,1.59
2019-03-19T20:53:31.673Z,1.50
2019-03-19T20:54:31.686Z,1.50
2019-03-19T20:55:31.702Z,1.44
2019-03-19T20:56:31.686Z,1.52
2019-03-19T20:57:31.695Z,1.40
2019-03-19T20:58:42.910Z,1.44
2019-03-19T20:59:32.699Z,1.42
2019-03-19T21:00:31.686Z,1.48
2019-03-19T21:01:31.685Z,1.45
2019-03-19T21:02:31.683Z,1.42
2019-03-19T21:03:36.019Z,1.48
2019-03-19T21:04:31.712Z,1.42
2019-03-19T21:05:31.690Z,1.37
2019-03-19T21:06:31.686Z,1.40
2019-03-19T21:07:31.687Z,1.44
2019-03-19T21:08:31.690Z,1.44
2019-03-19T21:09:31.686Z,1.40
2019-03-19T21:10:31.684Z,1.35
2019-03-19T21:11:31.691Z,1.52
2019-03-19T21:12:31.682Z,1.37
2019-03-19T21:13:31.187Z,1.48
2019-03-19T21:14:31.183Z,1.30
2019-03-19T21:15:31.183Z,1.41
2019-03-19T21:16:31.182Z,1.32
2019-03-19T21:17:31.208Z,1.31
2019-03-19T21:18:31.183Z,1.26
2019-03-19T21:19:31.191Z,1.32
2019-03-19T21:20:31.183Z,1.28
2019-03-19T21:21:29.600Z,1.35
2019-03-19T21:22:31.185Z,1.31
2019-03-19T21:23:31.195Z,1.31
2019-03-19T21:24:31.189Z,1.31
2019-03-19T21:25:31.184Z,1.37
2019-03-19T21:26:31.182Z,1.34
2019-03-19T21:27:31.181Z,1.42
2019-03-19T21:28:31.184Z,1.37
2019-03-19T21:29:31.181Z,1.45
2019-03-19T21:30:31.186Z,1.40
2019-03-19T21:31:31.179Z,1.48
2019-03-19T21:32:31.266Z,1.38
2019-03-19T21:33:31.181Z,1.41
2019-03-19T21:34:31.169Z,1.41
2019-03-19T21:35:31.179Z,1.55
2019-03-19T21:36:31.217Z,1.60
2019-03-19T21:37:31.180Z,1.66
2019-03-19T21:38:31.180Z,1.70
2019-03-19T21:39:31.182Z,1.67
2019-03-19T21:40:31.179Z,1.73
2019-03-19T21:41:31.182Z,1.77
2019-03-19T21:42:31.184Z,1.78
2019-03-19T21:43:31.182Z,1.76
2019-03-19T21:44:31.178Z,1.71
2019-03-19T21:45:31.176Z,1.73
2019-03-19T21:46:31.193Z,1.67
2019-03-19T21:47:31.182Z,1.68
2019-03-19T21:48:31.176Z,1.67
2019-03-19T21:49:30.176Z,1.78
2019-03-19T21:50:31.179Z,1.94
2019-03-19T21:51:31.178Z,1.94
2019-03-19T21:52:31.191Z,1.95
2019-03-19T21:53:31.177Z,1.92
2019-03-19T21:54:31.176Z,1.84
2019-03-19T21:55:31.190Z,1.89
2019-03-19T21:56:31.176Z,1.94
2019-03-19T21:57:31.164Z,1.87
2019-03-19T21:58:31.179Z,2.08
2019-03-19T21:59:31.186Z,1.99
2019-03-19T22:00:31.178Z,2.14
2019-03-19T22:01:30.677Z,2.17
2019-03-19T22:02:30.664Z,2.26
2019-03-19T22:03:30.705Z,2.35
2019-03-19T22:04:30.679Z,2.47
2019-03-19T22:05:30.676Z,2.61
2019-03-19T22:06:30.663Z,2.74
2019-03-19T22:07:30.673Z,2.93
2019-03-19T22:08:30.673Z,3.10
2019-03-19T22:09:30.681Z,3.25
2019-03-19T22:10:30.679Z,3.34
2019-03-19T22:11:30.675Z,3.45
2019-03-19T22:12:30.674Z,3.53
2019-03-19T22:13:30.675Z,3.60
2019-03-19T22:14:30.662Z,3.66
2019-03-19T22:15:30.682Z,3.63
2019-03-19T22:16:30.672Z,3.55
2019-03-19T22:17:30.661Z,3.55
2019-03-19T22:18:30.676Z,3.56
2019-03-19T22:19:28.984Z,3.58
2019-03-19T22:20:30.681Z,3.66
2019-03-19T22:21:30.682Z,3.66
2019-03-19T22:22:30.675Z,3.66
2019-03-19T22:23:30.679Z,3.66
2019-03-19T22:24:30.677Z,3.69
2019-03-19T22:25:30.679Z,3.68
2019-03-19T22:26:30.677Z,3.73
2019-03-19T22:27:30.679Z,3.74
2019-03-19T22:28:30.671Z,3.76